sensor_id;sensor_type;location;lat;lon;timestamp;temperature;humidity
54558;DHT22;40452;50.080;20.040;2022-12-29T00:01:36;20.90;35.30
54558;DHT22;40452;50.080;20.040;2022-12-29T00:04:02;20.90;35.30
54558;DHT22;40452;50.080;20.040;2022-12-29T00:06:28;20.90;35.10
54558;DHT22;40452;50.080;20.040;2022-12-29T00:08:53;20.90;34.90
54558;DHT22;40452;50.080;20.040;2022-12-29T00:11:24;20.90;35.00
54558;DHT22;40452;50.080;20.040;2022-12-29T00:13:50;20.80;35.70
54558;DHT22;40452;50.080;20.040;2022-12-29T00:16:35;20.90;35.20
54558;DHT22;40452;50.080;20.040;2022-12-29T00:19:01;20.90;34.90
54558;DHT22;40452;50.080;20.040;2022-12-29T00:21:27;20.80;34.80
54558;DHT22;40452;50.080;20.040;2022-12-29T00:24:15;20.90;34.90
54558;DHT22;40452;50.080;20.040;2022-12-29T00:29:47;20.80;35.10
54558;DHT22;40452;50.080;20.040;2022-12-29T00:32:31;20.80;35.10
54558;DHT22;40452;50.080;20.040;2022-12-29T00:37:52;20.80;35.10
54558;DHT22;40452;50.080;20.040;2022-12-29T00:40:37;20.80;35.00
54558;DHT22;40452;50.080;20.040;2022-12-29T00:43:21;20.80;35.00
54558;DHT22;40452;50.080;20.040;2022-12-29T00:46:05;20.90;35.00
54558;DHT22;40452;50.080;20.040;2022-12-29T00:48:31;20.80;34.90
54558;DHT22;40452;50.080;20.040;2022-12-29T00:51:15;20.90;34.80
54558;DHT22;40452;50.080;20.040;2022-12-29T00:53:40;20.90;34.80
54558;DHT22;40452;50.080;20.040;2022-12-29T00:56:06;21.00;34.80
54558;DHT22;40452;50.080;20.040;2022-12-29T00:58:31;21.00;34.60
54558;DHT22;40452;50.080;20.040;2022-12-29T01:01:04;21.00;34.80
54558;DHT22;40452;50.080;20.040;2022-12-29T01:03:30;21.00;34.70
54558;DHT22;40452;50.080;20.040;2022-12-29T01:05:56;20.90;35.60
54558;DHT22;40452;50.080;20.040;2022-12-29T01:08:22;20.90;36.10
54558;DHT22;40452;50.080;20.040;2022-12-29T01:11:01;20.90;36.30
54558;DHT22;40452;50.080;20.040;2022-12-29T01:13:28;20.90;36.70
54558;DHT22;40452;50.080;20.040;2022-12-29T01:15:53;20.90;36.90
54558;DHT22;40452;50.080;20.040;2022-12-29T01:18:19;20.90;37.10
54558;DHT22;40452;50.080;20.040;2022-12-29T01:20:45;20.90;37.20
54558;DHT22;40452;50.080;20.040;2022-12-29T01:23:11;20.90;37.30
54558;DHT22;40452;50.080;20.040;2022-12-29T01:25:36;20.80;37.30
54558;DHT22;40452;50.080;20.040;2022-12-29T01:28:02;20.90;37.40
54558;DHT22;40452;50.080;20.040;2022-12-29T01:30:27;20.90;37.50
54558;DHT22;40452;50.080;20.040;2022-12-29T01:32:53;20.90;37.60
54558;DHT22;40452;50.080;20.040;2022-12-29T01:35:19;20.80;37.50
54558;DHT22;40452;50.080;20.040;2022-12-29T01:37:44;20.80;37.50
54558;DHT22;40452;50.080;20.040;2022-12-29T01:40:10;20.90;37.50
54558;DHT22;40452;50.080;20.040;2022-12-29T01:42:36;20.80;37.50
54558;DHT22;40452;50.080;20.040;2022-12-29T01:45:09;20.90;37.60
54558;DHT22;40452;50.080;20.040;2022-12-29T01:47:41;20.80;37.60
54558;DHT22;40452;50.080;20.040;2022-12-29T01:50:32;20.80;37.60
54558;DHT22;40452;50.080;20.040;2022-12-29T01:53:06;20.80;37.60
54558;DHT22;40452;50.080;20.040;2022-12-29T01:55:37;20.80;37.60
54558;DHT22;40452;50.080;20.040;2022-12-29T01:58:06;20.80;37.50
54558;DHT22;40452;50.080;20.040;2022-12-29T02:00:32;20.80;37.50
54558;DHT22;40452;50.080;20.040;2022-12-29T02:02:58;20.80;37.50
54558;DHT22;40452;50.080;20.040;2022-12-29T02:05:27;20.80;37.50
54558;DHT22;40452;50.080;20.040;2022-12-29T02:07:54;20.80;37.40
54558;DHT22;40452;50.080;20.040;2022-12-29T02:10:21;20.80;38.10
54558;DHT22;40452;50.080;20.040;2022-12-29T02:12:47;20.80;37.40
54558;DHT22;40452;50.080;20.040;2022-12-29T02:15:14;20.80;37.30
54558;DHT22;40452;50.080;20.040;2022-12-29T02:17:51;20.80;37.30
54558;DHT22;40452;50.080;20.040;2022-12-29T02:36:47;20.90;37.00
54558;DHT22;40452;50.080;20.040;2022-12-29T02:39:38;20.90;37.10
54558;DHT22;40452;50.080;20.040;2022-12-29T02:42:23;20.90;37.10
54558;DHT22;40452;50.080;20.040;2022-12-29T02:50:22;20.80;36.90
54558;DHT22;40452;50.080;20.040;2022-12-29T02:52:54;20.80;36.90
54558;DHT22;40452;50.080;20.040;2022-12-29T02:55:22;20.80;36.80
54558;DHT22;40452;50.080;20.040;2022-12-29T02:57:48;20.80;36.80
54558;DHT22;40452;50.080;20.040;2022-12-29T03:00:17;20.80;36.80
54558;DHT22;40452;50.080;20.040;2022-12-29T03:13:49;20.80;36.70
54558;DHT22;40452;50.080;20.040;2022-12-29T03:16:47;20.80;36.80
54558;DHT22;40452;50.080;20.040;2022-12-29T03:19:35;20.80;36.70
54558;DHT22;40452;50.080;20.040;2022-12-29T03:22:02;20.80;36.80
54558;DHT22;40452;50.080;20.040;2022-12-29T03:24:54;20.80;36.70
54558;DHT22;40452;50.080;20.040;2022-12-29T03:27:38;20.80;36.70
54558;DHT22;40452;50.080;20.040;2022-12-29T03:30:05;20.80;36.70
54558;DHT22;40452;50.080;20.040;2022-12-29T03:32:54;20.80;36.70
54558;DHT22;40452;50.080;20.040;2022-12-29T03:35:24;20.80;36.70
54558;DHT22;40452;50.080;20.040;2022-12-29T03:38:31;20.80;36.60
54558;DHT22;40452;50.080;20.040;2022-12-29T03:40:58;20.80;36.70
54558;DHT22;40452;50.080;20.040;2022-12-29T03:43:24;20.80;36.70
54558;DHT22;40452;50.080;20.040;2022-12-29T03:45:50;20.80;36.60
54558;DHT22;40452;50.080;20.040;2022-12-29T03:48:16;20.80;36.50
54558;DHT22;40452;50.080;20.040;2022-12-29T03:50:41;20.80;36.50
54558;DHT22;40452;50.080;20.040;2022-12-29T03:53:07;20.80;36.50
54558;DHT22;40452;50.080;20.040;2022-12-29T03:55:33;20.80;36.50
54558;DHT22;40452;50.080;20.040;2022-12-29T03:57:58;20.80;36.40
54558;DHT22;40452;50.080;20.040;2022-12-29T04:00:24;20.80;36.50
54558;DHT22;40452;50.080;20.040;2022-12-29T04:02:49;20.80;36.40
54558;DHT22;40452;50.080;20.040;2022-12-29T04:05:15;20.80;36.30
54558;DHT22;40452;50.080;20.040;2022-12-29T04:07:41;20.80;36.30
54558;DHT22;40452;50.080;20.040;2022-12-29T04:10:06;20.80;36.40
54558;DHT22;40452;50.080;20.040;2022-12-29T04:12:32;20.80;36.30
54558;DHT22;40452;50.080;20.040;2022-12-29T04:14:58;20.70;36.30
54558;DHT22;40452;50.080;20.040;2022-12-29T04:17:23;20.80;36.40
54558;DHT22;40452;50.080;20.040;2022-12-29T04:19:49;20.80;36.30
54558;DHT22;40452;50.080;20.040;2022-12-29T04:22:14;20.80;36.30
54558;DHT22;40452;50.080;20.040;2022-12-29T04:24:40;20.70;36.30
54558;DHT22;40452;50.080;20.040;2022-12-29T04:27:07;20.80;36.30
54558;DHT22;40452;50.080;20.040;2022-12-29T04:29:32;20.80;36.30
54558;DHT22;40452;50.080;20.040;2022-12-29T04:31:58;20.70;36.20
54558;DHT22;40452;50.080;20.040;2022-12-29T04:34:23;20.80;36.30
54558;DHT22;40452;50.080;20.040;2022-12-29T04:36:49;20.80;36.10
54558;DHT22;40452;50.080;20.040;2022-12-29T04:39:14;20.70;36.20
54558;DHT22;40452;50.080;20.040;2022-12-29T04:41:40;20.80;36.20
54558;DHT22;40452;50.080;20.040;2022-12-29T04:44:05;20.70;36.00
54558;DHT22;40452;50.080;20.040;2022-12-29T04:46:31;20.80;36.00
54558;DHT22;40452;50.080;20.040;2022-12-29T04:48:57;20.80;36.10
54558;DHT22;40452;50.080;20.040;2022-12-29T04:51:22;20.80;36.10
54558;DHT22;40452;50.080;20.040;2022-12-29T04:53:48;20.80;36.10
54558;DHT22;40452;50.080;20.040;2022-12-29T04:56:13;20.80;36.00
54558;DHT22;40452;50.080;20.040;2022-12-29T04:58:39;20.80;36.10
54558;DHT22;40452;50.080;20.040;2022-12-29T05:01:05;20.80;36.00
54558;DHT22;40452;50.080;20.040;2022-12-29T05:03:30;20.70;36.00
54558;DHT22;40452;50.080;20.040;2022-12-29T05:05:57;20.80;36.10
54558;DHT22;40452;50.080;20.040;2022-12-29T05:08:23;20.80;36.00
54558;DHT22;40452;50.080;20.040;2022-12-29T05:10:52;20.80;36.00
54558;DHT22;40452;50.080;20.040;2022-12-29T05:13:18;20.80;36.00
54558;DHT22;40452;50.080;20.040;2022-12-29T05:16:12;20.80;36.00
54558;DHT22;40452;50.080;20.040;2022-12-29T05:18:38;20.80;36.10
54558;DHT22;40452;50.080;20.040;2022-12-29T05:21:04;20.80;35.90
54558;DHT22;40452;50.080;20.040;2022-12-29T05:23:29;20.70;35.80
54558;DHT22;40452;50.080;20.040;2022-12-29T05:25:55;20.70;34.60
54558;DHT22;40452;50.080;20.040;2022-12-29T05:28:21;20.70;35.40
54558;DHT22;40452;50.080;20.040;2022-12-29T05:30:50;20.70;35.30
54558;DHT22;40452;50.080;20.040;2022-12-29T05:33:16;20.70;35.20
54558;DHT22;40452;50.080;20.040;2022-12-29T05:35:42;20.70;35.20
54558;DHT22;40452;50.080;20.040;2022-12-29T05:38:08;20.70;35.20
54558;DHT22;40452;50.080;20.040;2022-12-29T05:40:33;20.80;35.10
54558;DHT22;40452;50.080;20.040;2022-12-29T05:42:59;20.80;35.50
54558;DHT22;40452;50.080;20.040;2022-12-29T05:45:25;20.80;35.40
54558;DHT22;40452;50.080;20.040;2022-12-29T05:47:50;20.80;35.40
54558;DHT22;40452;50.080;20.040;2022-12-29T05:50:16;20.80;35.50
54558;DHT22;40452;50.080;20.040;2022-12-29T05:52:41;20.80;35.50
54558;DHT22;40452;50.080;20.040;2022-12-29T05:55:07;20.80;35.50
54558;DHT22;40452;50.080;20.040;2022-12-29T05:57:33;20.80;35.50
54558;DHT22;40452;50.080;20.040;2022-12-29T05:59:58;20.70;35.30
54558;DHT22;40452;50.080;20.040;2022-12-29T06:02:24;20.80;35.40
54558;DHT22;40452;50.080;20.040;2022-12-29T06:04:49;20.70;35.30
54558;DHT22;40452;50.080;20.040;2022-12-29T06:07:15;20.80;35.30
54558;DHT22;40452;50.080;20.040;2022-12-29T06:09:40;20.80;35.30
54558;DHT22;40452;50.080;20.040;2022-12-29T06:12:06;20.70;35.60
54558;DHT22;40452;50.080;20.040;2022-12-29T06:14:32;20.80;35.70
54558;DHT22;40452;50.080;20.040;2022-12-29T06:16:57;20.70;35.70
54558;DHT22;40452;50.080;20.040;2022-12-29T06:19:23;20.80;35.50
54558;DHT22;40452;50.080;20.040;2022-12-29T06:21:49;20.70;35.70
54558;DHT22;40452;50.080;20.040;2022-12-29T06:24:14;20.70;35.70
54558;DHT22;40452;50.080;20.040;2022-12-29T06:26:40;20.70;35.70
54558;DHT22;40452;50.080;20.040;2022-12-29T06:29:07;20.70;35.70
54558;DHT22;40452;50.080;20.040;2022-12-29T06:31:33;20.70;35.70
54558;DHT22;40452;50.080;20.040;2022-12-29T06:33:59;20.70;35.90
54558;DHT22;40452;50.080;20.040;2022-12-29T06:36:24;20.70;35.80
54558;DHT22;40452;50.080;20.040;2022-12-29T06:38:50;20.70;35.80
54558;DHT22;40452;50.080;20.040;2022-12-29T06:41:18;20.70;35.90
54558;DHT22;40452;50.080;20.040;2022-12-29T06:43:44;20.70;35.90
54558;DHT22;40452;50.080;20.040;2022-12-29T06:46:09;20.70;35.90
54558;DHT22;40452;50.080;20.040;2022-12-29T06:48:35;20.70;35.90
54558;DHT22;40452;50.080;20.040;2022-12-29T06:51:00;20.70;35.90
54558;DHT22;40452;50.080;20.040;2022-12-29T06:53:26;20.70;35.90
54558;DHT22;40452;50.080;20.040;2022-12-29T06:55:52;20.70;35.80
54558;DHT22;40452;50.080;20.040;2022-12-29T06:58:17;20.70;36.00
54558;DHT22;40452;50.080;20.040;2022-12-29T07:00:43;20.70;36.10
54558;DHT22;40452;50.080;20.040;2022-12-29T07:03:08;20.70;36.10
54558;DHT22;40452;50.080;20.040;2022-12-29T07:05:34;20.70;36.10
54558;DHT22;40452;50.080;20.040;2022-12-29T07:08:00;20.70;36.10
54558;DHT22;40452;50.080;20.040;2022-12-29T07:10:25;20.60;36.10
54558;DHT22;40452;50.080;20.040;2022-12-29T07:12:51;20.60;36.40
54558;DHT22;40452;50.080;20.040;2022-12-29T07:15:17;20.70;36.50
54558;DHT22;40452;50.080;20.040;2022-12-29T07:17:43;20.70;36.50
54558;DHT22;40452;50.080;20.040;2022-12-29T07:20:08;20.70;36.40
54558;DHT22;40452;50.080;20.040;2022-12-29T07:22:34;20.70;36.50
54558;DHT22;40452;50.080;20.040;2022-12-29T07:25:00;20.70;36.50
54558;DHT22;40452;50.080;20.040;2022-12-29T07:27:26;20.70;36.60
54558;DHT22;40452;50.080;20.040;2022-12-29T07:29:51;20.70;36.70
54558;DHT22;40452;50.080;20.040;2022-12-29T07:32:17;20.70;36.70
54558;DHT22;40452;50.080;20.040;2022-12-29T07:34:42;20.70;36.90
54558;DHT22;40452;50.080;20.040;2022-12-29T07:37:10;20.70;36.80
54558;DHT22;40452;50.080;20.040;2022-12-29T07:39:36;20.70;36.80
54558;DHT22;40452;50.080;20.040;2022-12-29T07:42:01;20.80;36.80
54558;DHT22;40452;50.080;20.040;2022-12-29T07:44:27;20.70;36.80
54558;DHT22;40452;50.080;20.040;2022-12-29T07:46:52;20.80;37.10
54558;DHT22;40452;50.080;20.040;2022-12-29T07:49:18;20.80;37.10
54558;DHT22;40452;50.080;20.040;2022-12-29T07:51:44;20.90;36.80
54558;DHT22;40452;50.080;20.040;2022-12-29T07:54:09;20.90;36.80
54558;DHT22;40452;50.080;20.040;2022-12-29T07:56:35;20.90;37.00
54558;DHT22;40452;50.080;20.040;2022-12-29T07:59:01;20.80;37.10
54558;DHT22;40452;50.080;20.040;2022-12-29T08:01:26;20.80;37.30
54558;DHT22;40452;50.080;20.040;2022-12-29T08:03:52;20.80;37.30
54558;DHT22;40452;50.080;20.040;2022-12-29T08:06:17;20.80;37.40
54558;DHT22;40452;50.080;20.040;2022-12-29T08:08:43;20.80;37.60
54558;DHT22;40452;50.080;20.040;2022-12-29T08:11:09;20.80;37.50
54558;DHT22;40452;50.080;20.040;2022-12-29T08:13:34;20.80;37.40
54558;DHT22;40452;50.080;20.040;2022-12-29T08:16:00;20.80;37.50
54558;DHT22;40452;50.080;20.040;2022-12-29T08:18:25;20.80;37.50
54558;DHT22;40452;50.080;20.040;2022-12-29T08:20:51;20.80;37.50
54558;DHT22;40452;50.080;20.040;2022-12-29T08:23:17;20.80;37.60
54558;DHT22;40452;50.080;20.040;2022-12-29T08:25:42;20.80;37.50
54558;DHT22;40452;50.080;20.040;2022-12-29T08:28:08;20.80;37.50
54558;DHT22;40452;50.080;20.040;2022-12-29T08:30:33;20.80;37.50
54558;DHT22;40452;50.080;20.040;2022-12-29T08:32:59;20.80;37.50
54558;DHT22;40452;50.080;20.040;2022-12-29T08:35:24;20.80;37.50
54558;DHT22;40452;50.080;20.040;2022-12-29T08:37:50;20.80;37.30
54558;DHT22;40452;50.080;20.040;2022-12-29T08:40:15;20.80;37.40
54558;DHT22;40452;50.080;20.040;2022-12-29T08:42:41;20.80;37.40
54558;DHT22;40452;50.080;20.040;2022-12-29T08:45:07;20.80;37.40
54558;DHT22;40452;50.080;20.040;2022-12-29T12:21:15;20.30;37.10
54558;DHT22;40452;50.080;20.040;2022-12-29T12:26:46;20.70;36.60
54558;DHT22;40452;50.080;20.040;2022-12-29T12:29:35;20.70;36.50
54558;DHT22;40452;50.080;20.040;2022-12-29T12:34:41;20.70;36.40
54558;DHT22;40452;50.080;20.040;2022-12-29T12:45:53;20.60;36.90
54558;DHT22;40452;50.080;20.040;2022-12-29T12:54:12;20.60;36.70
54558;DHT22;40452;50.080;20.040;2022-12-29T13:08:19;20.60;36.60
54558;DHT22;40452;50.080;20.040;2022-12-29T13:20:02;20.60;36.30
54558;DHT22;40452;50.080;20.040;2022-12-29T13:31:14;20.60;36.50
54558;DHT22;40452;50.080;20.040;2022-12-29T13:34:11;20.60;36.50
54558;DHT22;40452;50.080;20.040;2022-12-29T13:36:44;20.60;36.70
54558;DHT22;40452;50.080;20.040;2022-12-29T13:41:53;20.60;36.60
54558;DHT22;40452;50.080;20.040;2022-12-29T13:47:04;20.60;36.80
54558;DHT22;40452;50.080;20.040;2022-12-29T13:49:32;20.60;36.90
54558;DHT22;40452;50.080;20.040;2022-12-29T13:52:28;20.60;36.90
54558;DHT22;40452;50.080;20.040;2022-12-29T13:54:59;20.60;36.90
54558;DHT22;40452;50.080;20.040;2022-12-29T14:00:16;20.60;37.00
54558;DHT22;40452;50.080;20.040;2022-12-29T14:07:43;20.60;37.10
54558;DHT22;40452;50.080;20.040;2022-12-29T14:10:31;20.60;37.10
54558;DHT22;40452;50.080;20.040;2022-12-29T14:13:14;20.60;37.10
54558;DHT22;40452;50.080;20.040;2022-12-29T14:15:43;20.60;37.20
54558;DHT22;40452;50.080;20.040;2022-12-29T14:18:16;20.60;37.20
54558;DHT22;40452;50.080;20.040;2022-12-29T14:23:42;20.60;37.20
54558;DHT22;40452;50.080;20.040;2022-12-29T14:26:14;20.60;37.30
54558;DHT22;40452;50.080;20.040;2022-12-29T14:28:49;20.60;37.30
54558;DHT22;40452;50.080;20.040;2022-12-29T14:36:34;20.60;37.40
54558;DHT22;40452;50.080;20.040;2022-12-29T14:39:00;20.60;37.40
54558;DHT22;40452;50.080;20.040;2022-12-29T14:41:40;20.60;37.40
54558;DHT22;40452;50.080;20.040;2022-12-29T14:44:19;20.60;37.50
54558;DHT22;40452;50.080;20.040;2022-12-29T14:46:53;20.60;37.50
54558;DHT22;40452;50.080;20.040;2022-12-29T14:49:26;20.60;37.50
54558;DHT22;40452;50.080;20.040;2022-12-29T14:51:55;20.60;37.50
54558;DHT22;40452;50.080;20.040;2022-12-29T14:57:14;20.60;37.50
54558;DHT22;40452;50.080;20.040;2022-12-29T14:59:41;20.50;37.50
54558;DHT22;40452;50.080;20.040;2022-12-29T15:02:21;20.50;37.50
54558;DHT22;40452;50.080;20.040;2022-12-29T15:04:47;20.50;37.50
54558;DHT22;40452;50.080;20.040;2022-12-29T15:07:14;20.50;37.50
54558;DHT22;40452;50.080;20.040;2022-12-29T15:09:53;20.60;37.50
54558;DHT22;40452;50.080;20.040;2022-12-29T15:15:00;20.50;37.60
54558;DHT22;40452;50.080;20.040;2022-12-29T15:19:52;20.50;38.20
54558;DHT22;40452;50.080;20.040;2022-12-29T15:22:17;20.50;37.60
54558;DHT22;40452;50.080;20.040;2022-12-29T15:24:43;20.50;37.60
54558;DHT22;40452;50.080;20.040;2022-12-29T15:27:18;20.50;37.50
54558;DHT22;40452;50.080;20.040;2022-12-29T15:29:45;20.50;37.60
54558;DHT22;40452;50.080;20.040;2022-12-29T15:32:42;20.50;37.60
54558;DHT22;40452;50.080;20.040;2022-12-29T15:35:34;20.50;37.60
54558;DHT22;40452;50.080;20.040;2022-12-29T15:38:12;20.50;37.70
54558;DHT22;40452;50.080;20.040;2022-12-29T15:40:38;20.50;37.70
54558;DHT22;40452;50.080;20.040;2022-12-29T15:43:40;20.50;37.70
54558;DHT22;40452;50.080;20.040;2022-12-29T15:46:10;20.50;37.70
54558;DHT22;40452;50.080;20.040;2022-12-29T15:48:38;20.50;37.70
54558;DHT22;40452;50.080;20.040;2022-12-29T15:51:17;20.50;37.70
54558;DHT22;40452;50.080;20.040;2022-12-29T15:53:47;20.50;37.60
54558;DHT22;40452;50.080;20.040;2022-12-29T15:56:13;20.50;37.70
54558;DHT22;40452;50.080;20.040;2022-12-29T15:58:44;20.50;37.70
54558;DHT22;40452;50.080;20.040;2022-12-29T16:01:18;20.50;37.70
54558;DHT22;40452;50.080;20.040;2022-12-29T16:03:45;20.50;37.70
54558;DHT22;40452;50.080;20.040;2022-12-29T16:06:32;20.50;37.70
54558;DHT22;40452;50.080;20.040;2022-12-29T16:11:36;20.50;37.70
54558;DHT22;40452;50.080;20.040;2022-12-29T16:14:10;20.50;37.60
54558;DHT22;40452;50.080;20.040;2022-12-29T16:16:39;20.50;37.60
54558;DHT22;40452;50.080;20.040;2022-12-29T16:19:28;20.50;37.70
54558;DHT22;40452;50.080;20.040;2022-12-29T16:21:55;20.50;37.70
54558;DHT22;40452;50.080;20.040;2022-12-29T16:24:26;20.50;37.70
54558;DHT22;40452;50.080;20.040;2022-12-29T16:27:08;20.50;37.70
54558;DHT22;40452;50.080;20.040;2022-12-29T16:29:34;20.50;37.70
54558;DHT22;40452;50.080;20.040;2022-12-29T16:32:01;20.50;37.70
54558;DHT22;40452;50.080;20.040;2022-12-29T16:34:33;20.50;37.70
54558;DHT22;40452;50.080;20.040;2022-12-29T16:39:55;20.40;37.60
54558;DHT22;40452;50.080;20.040;2022-12-29T16:47:42;20.50;37.60
54558;DHT22;40452;50.080;20.040;2022-12-29T16:50:13;20.50;37.60
54558;DHT22;40452;50.080;20.040;2022-12-29T16:52:42;20.50;37.50
54558;DHT22;40452;50.080;20.040;2022-12-29T16:55:15;20.50;37.40
54558;DHT22;40452;50.080;20.040;2022-12-29T16:57:42;20.40;37.40
54558;DHT22;40452;50.080;20.040;2022-12-29T17:00:19;20.40;37.40
54558;DHT22;40452;50.080;20.040;2022-12-29T17:02:45;20.40;37.30
54558;DHT22;40452;50.080;20.040;2022-12-29T17:05:15;20.40;37.30
54558;DHT22;40452;50.080;20.040;2022-12-29T17:07:41;20.40;37.30
54558;DHT22;40452;50.080;20.040;2022-12-29T17:10:07;20.40;37.30
54558;DHT22;40452;50.080;20.040;2022-12-29T17:12:34;20.40;37.20
54558;DHT22;40452;50.080;20.040;2022-12-29T17:17:34;20.40;37.30
54558;DHT22;40452;50.080;20.040;2022-12-29T17:20:21;20.40;37.20
54558;DHT22;40452;50.080;20.040;2022-12-29T17:22:48;20.40;37.20
54558;DHT22;40452;50.080;20.040;2022-12-29T17:25:17;20.40;37.20
54558;DHT22;40452;50.080;20.040;2022-12-29T17:28:16;20.40;37.20
54558;DHT22;40452;50.080;20.040;2022-12-29T17:30:45;20.30;37.20
54558;DHT22;40452;50.080;20.040;2022-12-29T17:33:14;20.30;37.30
54558;DHT22;40452;50.080;20.040;2022-12-29T17:35:40;20.30;37.80
54558;DHT22;40452;50.080;20.040;2022-12-29T17:38:25;20.30;37.20
54558;DHT22;40452;50.080;20.040;2022-12-29T17:40:52;20.40;37.20
54558;DHT22;40452;50.080;20.040;2022-12-29T17:43:18;20.40;37.30
54558;DHT22;40452;50.080;20.040;2022-12-29T17:45:47;20.30;37.20
54558;DHT22;40452;50.080;20.040;2022-12-29T17:48:15;20.40;37.30
54558;DHT22;40452;50.080;20.040;2022-12-29T17:50:41;20.40;37.40
54558;DHT22;40452;50.080;20.040;2022-12-29T17:53:29;20.40;37.30
54558;DHT22;40452;50.080;20.040;2022-12-29T17:55:55;20.40;37.40
54558;DHT22;40452;50.080;20.040;2022-12-29T17:58:28;20.40;38.40
54558;DHT22;40452;50.080;20.040;2022-12-29T18:00:57;20.40;37.70
54558;DHT22;40452;50.080;20.040;2022-12-29T18:03:29;20.40;37.80
54558;DHT22;40452;50.080;20.040;2022-12-29T18:05:55;20.40;37.90
54558;DHT22;40452;50.080;20.040;2022-12-29T19:19:45;20.00;37.50
54558;DHT22;40452;50.080;20.040;2022-12-29T19:22:11;20.40;37.60
54558;DHT22;40452;50.080;20.040;2022-12-29T19:24:36;20.50;37.50
54558;DHT22;40452;50.080;20.040;2022-12-29T19:27:02;20.50;37.60
54558;DHT22;40452;50.080;20.040;2022-12-29T19:29:27;20.50;37.50
54558;DHT22;40452;50.080;20.040;2022-12-29T19:31:54;20.40;37.50
54558;DHT22;40452;50.080;20.040;2022-12-29T19:34:20;20.40;37.60
54558;DHT22;40452;50.080;20.040;2022-12-29T19:36:45;20.40;37.60
54558;DHT22;40452;50.080;20.040;2022-12-29T19:39:12;20.40;37.50
54558;DHT22;40452;50.080;20.040;2022-12-29T19:41:37;20.40;37.60
54558;DHT22;40452;50.080;20.040;2022-12-29T19:44:03;20.40;37.70
54558;DHT22;40452;50.080;20.040;2022-12-29T19:46:29;20.40;37.80
54558;DHT22;40452;50.080;20.040;2022-12-29T19:48:54;20.40;37.80
54558;DHT22;40452;50.080;20.040;2022-12-29T19:51:23;20.40;37.90
54558;DHT22;40452;50.080;20.040;2022-12-29T19:53:49;20.40;38.10
54558;DHT22;40452;50.080;20.040;2022-12-29T19:56:15;20.40;38.30
54558;DHT22;40452;50.080;20.040;2022-12-29T19:58:42;20.40;38.40
54558;DHT22;40452;50.080;20.040;2022-12-29T20:01:16;20.50;38.20
54558;DHT22;40452;50.080;20.040;2022-12-29T20:03:42;20.50;38.10
54558;DHT22;40452;50.080;20.040;2022-12-29T20:06:09;20.40;38.20
54558;DHT22;40452;50.080;20.040;2022-12-29T20:08:35;20.40;38.20
54558;DHT22;40452;50.080;20.040;2022-12-29T20:11:06;20.50;38.40
54558;DHT22;40452;50.080;20.040;2022-12-29T20:13:33;20.50;38.30
54558;DHT22;40452;50.080;20.040;2022-12-29T20:16:05;20.50;38.20
54558;DHT22;40452;50.080;20.040;2022-12-29T20:18:32;20.50;38.40
54558;DHT22;40452;50.080;20.040;2022-12-29T20:21:04;20.50;38.70
54558;DHT22;40452;50.080;20.040;2022-12-29T20:23:31;20.50;38.80
54558;DHT22;40452;50.080;20.040;2022-12-29T20:25:58;20.50;39.00
54558;DHT22;40452;50.080;20.040;2022-12-29T20:28:25;20.50;38.80
54558;DHT22;40452;50.080;20.040;2022-12-29T20:33:43;20.50;38.70
54558;DHT22;40452;50.080;20.040;2022-12-29T20:36:12;20.50;38.50
54558;DHT22;40452;50.080;20.040;2022-12-29T20:38:40;20.50;38.60
54558;DHT22;40452;50.080;20.040;2022-12-29T20:41:05;20.50;38.70
54558;DHT22;40452;50.080;20.040;2022-12-29T20:43:31;20.60;38.80
54558;DHT22;40452;50.080;20.040;2022-12-29T20:45:57;20.60;38.50
54558;DHT22;40452;50.080;20.040;2022-12-29T20:48:22;20.50;38.10
54558;DHT22;40452;50.080;20.040;2022-12-29T20:50:48;20.50;38.00
54558;DHT22;40452;50.080;20.040;2022-12-29T20:53:13;20.50;37.90
54558;DHT22;40452;50.080;20.040;2022-12-29T20:55:39;20.50;37.90
54558;DHT22;40452;50.080;20.040;2022-12-29T20:58:05;20.50;38.10
54558;DHT22;40452;50.080;20.040;2022-12-29T21:00:31;20.60;38.20
54558;DHT22;40452;50.080;20.040;2022-12-29T21:02:58;20.50;38.10
54558;DHT22;40452;50.080;20.040;2022-12-29T21:05:24;20.50;38.20
54558;DHT22;40452;50.080;20.040;2022-12-29T21:07:51;20.50;38.10
54558;DHT22;40452;50.080;20.040;2022-12-29T21:10:16;20.50;38.10
54558;DHT22;40452;50.080;20.040;2022-12-29T21:12:42;20.60;38.30
54558;DHT22;40452;50.080;20.040;2022-12-29T21:15:08;20.50;38.10
54558;DHT22;40452;50.080;20.040;2022-12-29T21:17:34;20.50;38.20
54558;DHT22;40452;50.080;20.040;2022-12-29T21:20:00;20.60;38.70
54558;DHT22;40452;50.080;20.040;2022-12-29T21:22:26;20.60;38.80
54558;DHT22;40452;50.080;20.040;2022-12-29T21:24:51;20.60;38.90
54558;DHT22;40452;50.080;20.040;2022-12-29T21:27:17;20.60;38.80
54558;DHT22;40452;50.080;20.040;2022-12-29T21:29:42;20.60;38.70
54558;DHT22;40452;50.080;20.040;2022-12-29T21:32:08;20.60;39.00
54558;DHT22;40452;50.080;20.040;2022-12-29T21:34:34;20.60;38.90
54558;DHT22;40452;50.080;20.040;2022-12-29T21:36:59;20.60;38.80
54558;DHT22;40452;50.080;20.040;2022-12-29T21:39:25;20.60;38.80
54558;DHT22;40452;50.080;20.040;2022-12-29T21:41:51;20.50;38.70
54558;DHT22;40452;50.080;20.040;2022-12-29T21:44:16;20.60;39.00
54558;DHT22;40452;50.080;20.040;2022-12-29T21:47:01;20.60;39.60
54558;DHT22;40452;50.080;20.040;2022-12-29T21:49:26;20.60;39.60
54558;DHT22;40452;50.080;20.040;2022-12-29T21:51:53;20.60;39.30
54558;DHT22;40452;50.080;20.040;2022-12-29T21:54:23;20.70;39.60
54558;DHT22;40452;50.080;20.040;2022-12-29T21:57:08;20.60;39.40
54558;DHT22;40452;50.080;20.040;2022-12-29T21:59:34;20.60;39.80
54558;DHT22;40452;50.080;20.040;2022-12-29T22:02:23;20.70;40.00
54558;DHT22;40452;50.080;20.040;2022-12-29T22:05:10;20.70;39.80
54558;DHT22;40452;50.080;20.040;2022-12-29T22:07:54;20.70;39.90
54558;DHT22;40452;50.080;20.040;2022-12-29T22:10:41;20.80;39.90
54558;DHT22;40452;50.080;20.040;2022-12-29T22:13:25;20.80;39.90
54558;DHT22;40452;50.080;20.040;2022-12-29T22:15:51;20.80;40.00
54558;DHT22;40452;50.080;20.040;2022-12-29T22:18:16;20.80;40.00
54558;DHT22;40452;50.080;20.040;2022-12-29T22:20:42;20.80;40.00
54558;DHT22;40452;50.080;20.040;2022-12-29T22:23:07;20.80;40.00
54558;DHT22;40452;50.080;20.040;2022-12-29T22:25:33;20.80;40.00
54558;DHT22;40452;50.080;20.040;2022-12-29T22:27:58;20.80;39.70